Berkey, OH

6:05 PM EDT on July 29, 2016 (GMT -0400)
Circle Six Farms | | Change Station

Elev 692 ft 41.77 °N, 83.76 °W | Updated 23 seconds ago

Clear
Clear
73.9 °F
Feels Like 74 °F
N
10.4
Wind Variable Wind from ESE

Today
High -- | Low -- °F
--% Chance of Precip.
Yesterday
High -- | Low -- °F
Precip. -- in
Pressure 29.92 in
Visibility 10.0 miles
Clouds Clear
Heat Index 74 °F
Dew Point 67 °F
Humidity 80%
Rainfall 0.01 in
Snow Depth Not available.
6:27 AM 8:55 PM
Waning Crescent, 18% visible
METAR KTOL 292152Z 06009KT 10SM CLR 23/22 A2993 RMK AO2 RAB2056E32 SLP132 P0004 T02280222
Pressure 29.92 in
Visibility 10.0 miles
Clouds Clear
Heat Index 74 °F
Dew Point 67 °F
Humidity 80%
Rainfall 0.01 in
Snow Depth Not available.
6:27 AM 8:55 PM
Waning Crescent, 18% visible
METAR KTOL 292152Z 06009KT 10SM CLR 23/22 A2993 RMK AO2 RAB2056E32 SLP132 P0004 T02280222

10-Day Weather Forecast

Almanac

Astronomy

Jul. 29, 2016 Rise Set
Actual Time
Civil Twilight
Nautical Twilight
Astronomical Twilight
Moon
Length of Visible Light
Length of Day
Tomorrow will be .
, % of the Moon is Illuminated

Today's Extremes

State Highs State Lows

Community

WunderPhotos

Upload Photos

1,928,427 photos uploaded!

WunderBlog® & News

Nearby

Air Quality

  Air Quality AQ Index Pollutant
Not available.

Snow Depth

Station Depth Elevation

Earthquake Activity

City Distance Mag. Time & Date
Minimum magnitude displayed is 2.5.

Coastal Water Temperatures

Place Temperature

Stations

Nearby Weather Stations

Station Location Temp. Windchill Dew Point Humidity Wind Precip. Elev Updated Type
                   

Watches & Warnings

Flood Watch / Flood Statement
Issued: 6:00 PM EDT Jul. 29, 2016 – National Weather Service

... The Flood Advisory expired at 600 PM EDT for Lucas County...

The heavy rain has ended... and flooding is no longer expected to pose
a threat.

Lat... Lon 4172 8387 4173 8345 4172 8347 4172 8345
      4162 8345 4162 8357 4157 8362 4153 8371
      4149 8371 4146 8375 4146 8377 4141 8386
      4142 8388


Bray